Allingtown, Connecticut
Current Conditions -  °F | °C
As of 2:53 AM on Thursday 23 Oct 2014 (Local Time) from KHVN Reporting Station
Light Rain Light Rain  
Wind Chill: 11°   Ceiling: 7000
Heat Index: 11°   Visibility: 10mi
Dew Point:   Wind: 24mph
Humidity: 86%   Direction: 360°N
Pressure: 29.66"   Gusts: 38mph
Location:  41.2716°N, 72.9666°W
Report Text: KHVN 230653Z AUTO 36021G33KT 10SM -RA FEW017 FEW050 OVC070 11/08 A2966 RMK AO2 PK WND 36034/0616 SLP044 P0006 T01060083
Loading
Personal Weather Stations






























Interactive Weather Map
Tropical Storm Tracking
New forecast layout! Learn more

10-Day Weather Forecast

Advertisements
Track Severe Weather on mobile